Terminal Aerodrome Forecast
Issued by NWS

Home | Current Version | Previous Version | Text Only | Print | Product List | Glossary On
Versions: 1 2 3 4 5 6 7 8 9 10 11 12 13 14 15 16 17 18 19 20 21 22 23 24 25
000
FTUS43 KGRR 180530
TAFJXN
TAF
KJXN 180530Z 1806/1906 18006KT 4SM BR BKN050
     FM180900 21006KT 4SM BR OVC007
     FM181100 21007KT 1 1/2SM -DZ BR OVC004
     FM181600 23009KT 4SM BR OVC015
     FM182000 23010KT 6SM BR OVC015=

USA.gov is the U.S. government's official web portal to all federal, state and local government web resources and services.